sensor_id;sensor_type;location;lat;lon;timestamp;temperature;humidity
71254;HTU21D;59019;47.638;18.966;2023-07-29T00:02:00;18.15;112.26
71254;HTU21D;59019;47.638;18.966;2023-07-29T00:04:26;18.21;110.62
71254;HTU21D;59019;47.638;18.966;2023-07-29T00:06:51;18.20;110.92
71254;HTU21D;59019;47.638;18.966;2023-07-29T00:09:17;18.21;110.34
71254;HTU21D;59019;47.638;18.966;2023-07-29T00:11:42;18.20;109.26
71254;HTU21D;59019;47.638;18.966;2023-07-29T00:14:07;18.24;108.86
71254;HTU21D;59019;47.638;18.966;2023-07-29T00:16:33;18.19;107.69
71254;HTU21D;59019;47.638;18.966;2023-07-29T00:18:58;18.14;108.81
71254;HTU21D;59019;47.638;18.966;2023-07-29T00:21:24;18.11;108.26
71254;HTU21D;59019;47.638;18.966;2023-07-29T00:23:49;18.07;109.17
71254;HTU21D;59019;47.638;18.966;2023-07-29T00:26:15;18.02;108.01
71254;HTU21D;59019;47.638;18.966;2023-07-29T00:28:41;17.92;109.70
71254;HTU21D;59019;47.638;18.966;2023-07-29T00:31:06;17.83;113.28
71254;HTU21D;59019;47.638;18.966;2023-07-29T00:33:31;17.88;112.97
71254;HTU21D;59019;47.638;18.966;2023-07-29T00:35:57;17.88;109.94
71254;HTU21D;59019;47.638;18.966;2023-07-29T00:38:26;17.87;109.34
71254;HTU21D;59019;47.638;18.966;2023-07-29T00:40:52;17.85;109.76
71254;HTU21D;59019;47.638;18.966;2023-07-29T00:43:18;17.82;110.46
71254;HTU21D;59019;47.638;18.966;2023-07-29T00:45:43;17.87;109.68
71254;HTU21D;59019;47.638;18.966;2023-07-29T00:48:12;17.90;108.01
71254;HTU21D;59019;47.638;18.966;2023-07-29T00:50:38;17.77;108.31
71254;HTU21D;59019;47.638;18.966;2023-07-29T00:53:03;17.80;107.17
71254;HTU21D;59019;47.638;18.966;2023-07-29T00:55:29;17.75;107.43
71254;HTU21D;59019;47.638;18.966;2023-07-29T00:57:54;17.73;108.33
71254;HTU21D;59019;47.638;18.966;2023-07-29T01:00:21;17.75;107.67
71254;HTU21D;59019;47.638;18.966;2023-07-29T01:02:47;17.75;108.11
71254;HTU21D;59019;47.638;18.966;2023-07-29T01:05:14;17.73;107.26
71254;HTU21D;59019;47.638;18.966;2023-07-29T01:08:01;17.67;107.07
71254;HTU21D;59019;47.638;18.966;2023-07-29T01:11:01;17.46;108.37
71254;HTU21D;59019;47.638;18.966;2023-07-29T01:13:35;17.33;111.67
71254;HTU21D;59019;47.638;18.966;2023-07-29T01:16:13;17.33;111.99
71254;HTU21D;59019;47.638;18.966;2023-07-29T01:18:42;17.30;112.40
71254;HTU21D;59019;47.638;18.966;2023-07-29T01:21:09;17.26;112.70
71254;HTU21D;59019;47.638;18.966;2023-07-29T01:23:35;17.31;113.17
71254;HTU21D;59019;47.638;18.966;2023-07-29T01:26:01;17.41;111.61
71254;HTU21D;59019;47.638;18.966;2023-07-29T01:28:28;17.41;111.18
71254;HTU21D;59019;47.638;18.966;2023-07-29T01:31:10;17.35;111.65
71254;HTU21D;59019;47.638;18.966;2023-07-29T01:33:42;17.34;112.52
71254;HTU21D;59019;47.638;18.966;2023-07-29T01:36:13;17.41;111.96
71254;HTU21D;59019;47.638;18.966;2023-07-29T01:38:41;17.41;112.08
71254;HTU21D;59019;47.638;18.966;2023-07-29T01:41:08;17.44;110.58
71254;HTU21D;59019;47.638;18.966;2023-07-29T01:43:34;17.43;110.75
71254;HTU21D;59019;47.638;18.966;2023-07-29T01:46:04;17.40;110.22
71254;HTU21D;59019;47.638;18.966;2023-07-29T01:48:30;17.44;110.73
71254;HTU21D;59019;47.638;18.966;2023-07-29T01:50:57;17.45;109.15
71254;HTU21D;59019;47.638;18.966;2023-07-29T01:53:22;17.41;107.94
71254;HTU21D;59019;47.638;18.966;2023-07-29T01:55:48;17.38;108.40
71254;HTU21D;59019;47.638;18.966;2023-07-29T01:58:13;17.31;109.22
71254;HTU21D;59019;47.638;18.966;2023-07-29T02:00:39;17.30;109.46
71254;HTU21D;59019;47.638;18.966;2023-07-29T02:03:05;17.29;109.67
71254;HTU21D;59019;47.638;18.966;2023-07-29T02:05:30;17.16;111.89
71254;HTU21D;59019;47.638;18.966;2023-07-29T02:07:56;17.18;110.76
71254;HTU21D;59019;47.638;18.966;2023-07-29T02:10:22;17.15;110.20
71254;HTU21D;59019;47.638;18.966;2023-07-29T02:12:47;17.17;109.06
71254;HTU21D;59019;47.638;18.966;2023-07-29T02:15:12;17.13;109.89
71254;HTU21D;59019;47.638;18.966;2023-07-29T02:17:42;17.09;109.24
71254;HTU21D;59019;47.638;18.966;2023-07-29T02:20:08;17.08;108.85
71254;HTU21D;59019;47.638;18.966;2023-07-29T02:22:34;17.01;109.68
71254;HTU21D;59019;47.638;18.966;2023-07-29T02:24:59;16.98;109.65
71254;HTU21D;59019;47.638;18.966;2023-07-29T02:27:26;16.93;109.98
71254;HTU21D;59019;47.638;18.966;2023-07-29T02:29:53;16.96;111.82
71254;HTU21D;59019;47.638;18.966;2023-07-29T02:32:18;16.99;110.86
71254;HTU21D;59019;47.638;18.966;2023-07-29T02:34:45;17.01;109.47
71254;HTU21D;59019;47.638;18.966;2023-07-29T02:37:11;17.05;109.23
71254;HTU21D;59019;47.638;18.966;2023-07-29T02:39:37;16.96;109.66
71254;HTU21D;59019;47.638;18.966;2023-07-29T02:42:02;16.94;109.37
71254;HTU21D;59019;47.638;18.966;2023-07-29T02:44:28;16.95;109.12
71254;HTU21D;59019;47.638;18.966;2023-07-29T02:46:54;16.93;108.55
71254;HTU21D;59019;47.638;18.966;2023-07-29T02:49:21;16.87;109.98
71254;HTU21D;59019;47.638;18.966;2023-07-29T02:51:47;16.87;109.40
71254;HTU21D;59019;47.638;18.966;2023-07-29T02:54:12;16.85;109.49
71254;HTU21D;59019;47.638;18.966;2023-07-29T02:56:37;16.80;111.35
71254;HTU21D;59019;47.638;18.966;2023-07-29T02:59:03;16.82;112.09
71254;HTU21D;59019;47.638;18.966;2023-07-29T03:01:29;16.84;114.29
71254;HTU21D;59019;47.638;18.966;2023-07-29T03:03:54;16.87;114.16
71254;HTU21D;59019;47.638;18.966;2023-07-29T03:06:20;16.89;112.54
71254;HTU21D;59019;47.638;18.966;2023-07-29T03:08:46;16.90;111.70
71254;HTU21D;59019;47.638;18.966;2023-07-29T03:11:15;16.84;112.37
71254;HTU21D;59019;47.638;18.966;2023-07-29T03:13:41;16.87;110.96
71254;HTU21D;59019;47.638;18.966;2023-07-29T03:16:13;16.86;110.30
71254;HTU21D;59019;47.638;18.966;2023-07-29T03:18:40;16.82;110.21
71254;HTU21D;59019;47.638;18.966;2023-07-29T03:21:06;16.77;110.00
71254;HTU21D;59019;47.638;18.966;2023-07-29T03:23:33;16.82;109.36
71254;HTU21D;59019;47.638;18.966;2023-07-29T03:25:59;16.78;110.71
71254;HTU21D;59019;47.638;18.966;2023-07-29T03:28:27;16.69;111.51
71254;HTU21D;59019;47.638;18.966;2023-07-29T03:30:53;16.71;110.95
71254;HTU21D;59019;47.638;18.966;2023-07-29T03:33:19;16.67;112.03
71254;HTU21D;59019;47.638;18.966;2023-07-29T03:35:44;16.67;114.02
71254;HTU21D;59019;47.638;18.966;2023-07-29T03:38:11;16.77;112.13
71254;HTU21D;59019;47.638;18.966;2023-07-29T03:40:40;16.75;110.07
71254;HTU21D;59019;47.638;18.966;2023-07-29T03:43:07;16.75;112.06
71254;HTU21D;59019;47.638;18.966;2023-07-29T03:45:33;16.76;110.97
71254;HTU21D;59019;47.638;18.966;2023-07-29T03:47:59;16.78;113.41
71254;HTU21D;59019;47.638;18.966;2023-07-29T03:50:26;16.82;114.35
71254;HTU21D;59019;47.638;18.966;2023-07-29T03:52:51;16.90;112.20
71254;HTU21D;59019;47.638;18.966;2023-07-29T03:55:17;16.90;111.61
71254;HTU21D;59019;47.638;18.966;2023-07-29T03:57:43;16.91;111.62
71254;HTU21D;59019;47.638;18.966;2023-07-29T04:00:08;17.01;110.74
71254;HTU21D;59019;47.638;18.966;2023-07-29T04:02:37;17.03;109.26
71254;HTU21D;59019;47.638;18.966;2023-07-29T04:05:06;17.08;108.43
71254;HTU21D;59019;47.638;18.966;2023-07-29T04:07:34;17.09;108.01
71254;HTU21D;59019;47.638;18.966;2023-07-29T04:09:59;17.11;107.40
71254;HTU21D;59019;47.638;18.966;2023-07-29T04:12:26;17.13;107.98
71254;HTU21D;59019;47.638;18.966;2023-07-29T04:14:52;17.11;108.68
71254;HTU21D;59019;47.638;18.966;2023-07-29T04:17:17;17.18;108.65
71254;HTU21D;59019;47.638;18.966;2023-07-29T04:19:43;17.24;109.08
71254;HTU21D;59019;47.638;18.966;2023-07-29T04:22:08;17.34;109.22
71254;HTU21D;59019;47.638;18.966;2023-07-29T04:24:33;17.53;109.75
71254;HTU21D;59019;47.638;18.966;2023-07-29T04:26:59;17.79;109.20
71254;HTU21D;59019;47.638;18.966;2023-07-29T04:29:25;18.07;110.03
71254;HTU21D;59019;47.638;18.966;2023-07-29T04:31:50;18.34;109.14
71254;HTU21D;59019;47.638;18.966;2023-07-29T04:34:18;18.71;109.66
71254;HTU21D;59019;47.638;18.966;2023-07-29T04:36:44;19.05;107.04
71254;HTU21D;59019;47.638;18.966;2023-07-29T04:39:09;19.27;105.95
71254;HTU21D;59019;47.638;18.966;2023-07-29T04:41:35;19.23;103.76
71254;HTU21D;59019;47.638;18.966;2023-07-29T04:44:00;19.16;104.16
71254;HTU21D;59019;47.638;18.966;2023-07-29T04:46:26;19.40;105.01
71254;HTU21D;59019;47.638;18.966;2023-07-29T04:48:51;19.56;104.40
71254;HTU21D;59019;47.638;18.966;2023-07-29T04:51:17;19.69;104.18
71254;HTU21D;59019;47.638;18.966;2023-07-29T04:53:42;19.99;104.03
71254;HTU21D;59019;47.638;18.966;2023-07-29T04:56:08;20.30;102.18
71254;HTU21D;59019;47.638;18.966;2023-07-29T04:58:33;20.54;100.02
71254;HTU21D;59019;47.638;18.966;2023-07-29T05:01:04;20.81;100.61
71254;HTU21D;59019;47.638;18.966;2023-07-29T05:03:29;20.92;99.43
71254;HTU21D;59019;47.638;18.966;2023-07-29T05:05:55;20.98;99.45
71254;HTU21D;59019;47.638;18.966;2023-07-29T05:08:22;21.00;99.50
71254;HTU21D;59019;47.638;18.966;2023-07-29T05:10:52;21.25;99.03
71254;HTU21D;59019;47.638;18.966;2023-07-29T05:13:18;21.61;97.27
71254;HTU21D;59019;47.638;18.966;2023-07-29T05:15:44;22.11;95.05
71254;HTU21D;59019;47.638;18.966;2023-07-29T05:18:11;22.87;95.70
71254;HTU21D;59019;47.638;18.966;2023-07-29T05:20:36;23.67;93.82
71254;HTU21D;59019;47.638;18.966;2023-07-29T05:23:02;24.27;91.63
71254;HTU21D;59019;47.638;18.966;2023-07-29T05:25:28;24.33;85.50
71254;HTU21D;59019;47.638;18.966;2023-07-29T05:27:54;24.10;84.02
71254;HTU21D;59019;47.638;18.966;2023-07-29T05:30:20;24.05;85.80
71254;HTU21D;59019;47.638;18.966;2023-07-29T05:32:45;24.16;86.53
71254;HTU21D;59019;47.638;18.966;2023-07-29T05:35:11;24.10;85.73
71254;HTU21D;59019;47.638;18.966;2023-07-29T05:37:38;24.06;83.56
71254;HTU21D;59019;47.638;18.966;2023-07-29T05:40:05;24.05;84.98
71254;HTU21D;59019;47.638;18.966;2023-07-29T05:42:32;23.99;84.50
71254;HTU21D;59019;47.638;18.966;2023-07-29T05:44:57;23.86;85.18
71254;HTU21D;59019;47.638;18.966;2023-07-29T05:47:23;23.83;84.94
71254;HTU21D;59019;47.638;18.966;2023-07-29T05:49:48;23.74;85.00
71254;HTU21D;59019;47.638;18.966;2023-07-29T05:52:14;23.70;85.73
71254;HTU21D;59019;47.638;18.966;2023-07-29T05:54:40;23.79;84.93
71254;HTU21D;59019;47.638;18.966;2023-07-29T05:57:09;23.64;86.04
71254;HTU21D;59019;47.638;18.966;2023-07-29T05:59:34;23.47;85.62
71254;HTU21D;59019;47.638;18.966;2023-07-29T06:02:00;23.27;86.74
71254;HTU21D;59019;47.638;18.966;2023-07-29T06:04:25;22.97;87.74
71254;HTU21D;59019;47.638;18.966;2023-07-29T06:06:51;22.82;88.29
71254;HTU21D;59019;47.638;18.966;2023-07-29T06:09:16;22.77;88.64
71254;HTU21D;59019;47.638;18.966;2023-07-29T06:11:42;23.11;89.26
71254;HTU21D;59019;47.638;18.966;2023-07-29T06:14:07;23.70;88.00
71254;HTU21D;59019;47.638;18.966;2023-07-29T06:16:33;24.46;83.99
71254;HTU21D;59019;47.638;18.966;2023-07-29T06:18:58;25.20;82.64
71254;HTU21D;59019;47.638;18.966;2023-07-29T06:21:24;25.86;79.64
71254;HTU21D;59019;47.638;18.966;2023-07-29T06:23:49;26.24;77.66
71254;HTU21D;59019;47.638;18.966;2023-07-29T06:26:15;26.47;78.01
71254;HTU21D;59019;47.638;18.966;2023-07-29T06:28:40;26.28;77.85
71254;HTU21D;59019;47.638;18.966;2023-07-29T06:31:06;26.23;77.94
71254;HTU21D;59019;47.638;18.966;2023-07-29T06:33:31;26.51;76.86
71254;HTU21D;59019;47.638;18.966;2023-07-29T06:35:57;27.06;76.50
71254;HTU21D;59019;47.638;18.966;2023-07-29T06:38:22;27.38;74.25
71254;HTU21D;59019;47.638;18.966;2023-07-29T06:40:48;27.49;74.31
71254;HTU21D;59019;47.638;18.966;2023-07-29T06:43:14;27.80;73.48
71254;HTU21D;59019;47.638;18.966;2023-07-29T06:45:39;27.84;72.24
71254;HTU21D;59019;47.638;18.966;2023-07-29T06:48:05;27.72;71.99
71254;HTU21D;59019;47.638;18.966;2023-07-29T06:50:31;27.84;71.84
71254;HTU21D;59019;47.638;18.966;2023-07-29T06:52:56;27.80;71.55
71254;HTU21D;59019;47.638;18.966;2023-07-29T06:55:22;27.80;72.53
71254;HTU21D;59019;47.638;18.966;2023-07-29T06:57:47;27.98;73.25
71254;HTU21D;59019;47.638;18.966;2023-07-29T07:00:13;28.18;73.05
71254;HTU21D;59019;47.638;18.966;2023-07-29T07:02:38;28.57;72.39
71254;HTU21D;59019;47.638;18.966;2023-07-29T07:05:04;28.78;69.68
71254;HTU21D;59019;47.638;18.966;2023-07-29T07:07:30;28.98;69.50
71254;HTU21D;59019;47.638;18.966;2023-07-29T07:09:56;29.46;68.07
71254;HTU21D;59019;47.638;18.966;2023-07-29T07:12:22;29.71;67.46
71254;HTU21D;59019;47.638;18.966;2023-07-29T07:14:47;29.96;66.65
71254;HTU21D;59019;47.638;18.966;2023-07-29T07:17:13;30.33;66.24
71254;HTU21D;59019;47.638;18.966;2023-07-29T07:19:38;30.37;64.34
71254;HTU21D;59019;47.638;18.966;2023-07-29T07:22:04;30.38;63.78
71254;HTU21D;59019;47.638;18.966;2023-07-29T07:24:29;30.45;63.89
71254;HTU21D;59019;47.638;18.966;2023-07-29T07:26:55;30.33;63.34
71254;HTU21D;59019;47.638;18.966;2023-07-29T07:29:20;30.41;63.83
71254;HTU21D;59019;47.638;18.966;2023-07-29T07:31:50;30.19;63.23
71254;HTU21D;59019;47.638;18.966;2023-07-29T07:34:18;29.97;63.05
71254;HTU21D;59019;47.638;18.966;2023-07-29T07:36:43;29.71;64.43
71254;HTU21D;59019;47.638;18.966;2023-07-29T07:39:08;29.31;65.95
71254;HTU21D;59019;47.638;18.966;2023-07-29T07:41:34;29.26;66.41
71254;HTU21D;59019;47.638;18.966;2023-07-29T07:43:59;28.80;66.36
71254;HTU21D;59019;47.638;18.966;2023-07-29T07:46:25;28.34;67.63
71254;HTU21D;59019;47.638;18.966;2023-07-29T07:48:50;28.05;68.67
71254;HTU21D;59019;47.638;18.966;2023-07-29T07:51:16;28.41;69.30
71254;HTU21D;59019;47.638;18.966;2023-07-29T07:53:42;28.77;68.23
71254;HTU21D;59019;47.638;18.966;2023-07-29T07:56:07;28.98;68.32
71254;HTU21D;59019;47.638;18.966;2023-07-29T07:58:34;29.28;67.19
71254;HTU21D;59019;47.638;18.966;2023-07-29T08:01:06;29.35;65.08
71254;HTU21D;59019;47.638;18.966;2023-07-29T08:03:32;29.45;65.12
71254;HTU21D;59019;47.638;18.966;2023-07-29T08:05:58;29.77;64.98
71254;HTU21D;59019;47.638;18.966;2023-07-29T08:08:24;30.17;63.98
71254;HTU21D;59019;47.638;18.966;2023-07-29T08:10:50;30.61;61.95
71254;HTU21D;59019;47.638;18.966;2023-07-29T08:13:15;31.34;61.00
71254;HTU21D;59019;47.638;18.966;2023-07-29T08:15:41;31.38;58.17
71254;HTU21D;59019;47.638;18.966;2023-07-29T08:18:07;31.64;58.74
71254;HTU21D;59019;47.638;18.966;2023-07-29T08:20:32;31.73;57.37
71254;HTU21D;59019;47.638;18.966;2023-07-29T08:22:58;31.69;58.60
71254;HTU21D;59019;47.638;18.966;2023-07-29T08:25:23;31.81;58.57
71254;HTU21D;59019;47.638;18.966;2023-07-29T08:27:49;31.86;57.36
71254;HTU21D;59019;47.638;18.966;2023-07-29T08:30:14;32.07;58.53
71254;HTU21D;59019;47.638;18.966;2023-07-29T08:32:41;32.02;56.96
71254;HTU21D;59019;47.638;18.966;2023-07-29T08:35:07;32.32;57.87
71254;HTU21D;59019;47.638;18.966;2023-07-29T08:37:33;32.28;57.12
71254;HTU21D;59019;47.638;18.966;2023-07-29T08:39:59;32.48;56.63
71254;HTU21D;59019;47.638;18.966;2023-07-29T08:42:29;32.35;57.15
71254;HTU21D;59019;47.638;18.966;2023-07-29T08:44:56;32.38;56.27
71254;HTU21D;59019;47.638;18.966;2023-07-29T08:47:22;32.57;55.14
71254;HTU21D;59019;47.638;18.966;2023-07-29T08:49:50;32.72;55.35
71254;HTU21D;59019;47.638;18.966;2023-07-29T08:52:18;32.76;54.65
71254;HTU21D;59019;47.638;18.966;2023-07-29T08:54:44;33.06;54.79
71254;HTU21D;59019;47.638;18.966;2023-07-29T08:57:10;33.34;54.05
71254;HTU21D;59019;47.638;18.966;2023-07-29T08:59:35;33.79;53.65
71254;HTU21D;59019;47.638;18.966;2023-07-29T09:02:01;34.03;51.58
71254;HTU21D;59019;47.638;18.966;2023-07-29T09:04:26;33.50;52.85
71254;HTU21D;59019;47.638;18.966;2023-07-29T09:06:55;33.03;53.76
71254;HTU21D;59019;47.638;18.966;2023-07-29T09:09:21;33.36;54.13
71254;HTU21D;59019;47.638;18.966;2023-07-29T09:11:47;33.78;53.34
71254;HTU21D;59019;47.638;18.966;2023-07-29T09:14:13;34.12;52.55
71254;HTU21D;59019;47.638;18.966;2023-07-29T09:16:39;34.19;51.94
71254;HTU21D;59019;47.638;18.966;2023-07-29T09:19:05;33.85;52.32
71254;HTU21D;59019;47.638;18.966;2023-07-29T09:21:31;33.72;51.91
71254;HTU21D;59019;47.638;18.966;2023-07-29T09:24:02;33.99;51.21
71254;HTU21D;59019;47.638;18.966;2023-07-29T09:26:28;33.14;51.40
71254;HTU21D;59019;47.638;18.966;2023-07-29T09:28:56;33.09;52.60
71254;HTU21D;59019;47.638;18.966;2023-07-29T09:31:23;33.51;51.69
71254;HTU21D;59019;47.638;18.966;2023-07-29T09:33:49;33.59;51.14
71254;HTU21D;59019;47.638;18.966;2023-07-29T09:36:14;33.47;51.18
71254;HTU21D;59019;47.638;18.966;2023-07-29T09:38:40;33.44;51.16
71254;HTU21D;59019;47.638;18.966;2023-07-29T09:41:05;33.81;49.73
71254;HTU21D;59019;47.638;18.966;2023-07-29T09:43:33;34.12;48.44
71254;HTU21D;59019;47.638;18.966;2023-07-29T09:46:03;34.35;48.61
71254;HTU21D;59019;47.638;18.966;2023-07-29T09:48:33;34.17;48.60
71254;HTU21D;59019;47.638;18.966;2023-07-29T09:50:59;33.94;48.45
71254;HTU21D;59019;47.638;18.966;2023-07-29T09:53:24;34.14;48.75
71254;HTU21D;59019;47.638;18.966;2023-07-29T09:55:53;34.34;47.90
71254;HTU21D;59019;47.638;18.966;2023-07-29T09:58:27;34.26;48.44
71254;HTU21D;59019;47.638;18.966;2023-07-29T10:00:53;34.59;46.90
71254;HTU21D;59019;47.638;18.966;2023-07-29T10:03:20;34.64;47.51
71254;HTU21D;59019;47.638;18.966;2023-07-29T10:05:46;34.46;46.60
71254;HTU21D;59019;47.638;18.966;2023-07-29T10:08:13;34.05;46.76
71254;HTU21D;59019;47.638;18.966;2023-07-29T10:10:41;34.25;48.10
71254;HTU21D;59019;47.638;18.966;2023-07-29T10:13:07;34.34;48.09
71254;HTU21D;59019;47.638;18.966;2023-07-29T10:15:33;33.47;48.70
71254;HTU21D;59019;47.638;18.966;2023-07-29T10:17:59;33.06;50.26
71254;HTU21D;59019;47.638;18.966;2023-07-29T10:20:24;32.87;50.53
71254;HTU21D;59019;47.638;18.966;2023-07-29T10:22:51;32.81;51.60
71254;HTU21D;59019;47.638;18.966;2023-07-29T10:25:24;32.47;52.30
71254;HTU21D;59019;47.638;18.966;2023-07-29T10:28:04;32.04;52.34
71254;HTU21D;59019;47.638;18.966;2023-07-29T10:30:30;31.71;52.79
71254;HTU21D;59019;47.638;18.966;2023-07-29T10:32:58;31.43;54.58
71254;HTU21D;59019;47.638;18.966;2023-07-29T10:35:24;31.02;54.32
71254;HTU21D;59019;47.638;18.966;2023-07-29T10:37:54;31.01;54.65
71254;HTU21D;59019;47.638;18.966;2023-07-29T10:40:20;30.92;54.71
71254;HTU21D;59019;47.638;18.966;2023-07-29T10:43:11;30.82;55.52
71254;HTU21D;59019;47.638;18.966;2023-07-29T10:45:41;31.55;54.87
71254;HTU21D;59019;47.638;18.966;2023-07-29T10:48:12;32.31;52.40
71254;HTU21D;59019;47.638;18.966;2023-07-29T10:50:38;32.74;52.70
71254;HTU21D;59019;47.638;18.966;2023-07-29T10:53:04;33.46;49.87
71254;HTU21D;59019;47.638;18.966;2023-07-29T10:55:35;34.25;49.60
71254;HTU21D;59019;47.638;18.966;2023-07-29T10:58:14;35.10;47.52
71254;HTU21D;59019;47.638;18.966;2023-07-29T11:00:45;34.88;48.26
71254;HTU21D;59019;47.638;18.966;2023-07-29T11:03:13;34.96;46.57
71254;HTU21D;59019;47.638;18.966;2023-07-29T11:05:52;35.01;46.83
71254;HTU21D;59019;47.638;18.966;2023-07-29T11:08:23;35.29;46.21
71254;HTU21D;59019;47.638;18.966;2023-07-29T11:13:26;35.68;46.12
71254;HTU21D;59019;47.638;18.966;2023-07-29T11:15:53;35.35;49.30
71254;HTU21D;59019;47.638;18.966;2023-07-29T11:18:20;35.64;48.89
71254;HTU21D;59019;47.638;18.966;2023-07-29T11:20:46;35.83;47.73
71254;HTU21D;59019;47.638;18.966;2023-07-29T11:23:13;35.47;48.07
71254;HTU21D;59019;47.638;18.966;2023-07-29T11:25:38;35.47;48.75
71254;HTU21D;59019;47.638;18.966;2023-07-29T11:28:04;34.64;48.46
71254;HTU21D;59019;47.638;18.966;2023-07-29T11:30:30;35.12;49.68
71254;HTU21D;59019;47.638;18.966;2023-07-29T11:32:57;35.20;48.46
71254;HTU21D;59019;47.638;18.966;2023-07-29T11:35:23;35.18;48.86
71254;HTU21D;59019;47.638;18.966;2023-07-29T11:37:55;35.51;47.50
71254;HTU21D;59019;47.638;18.966;2023-07-29T11:40:24;35.64;46.96
71254;HTU21D;59019;47.638;18.966;2023-07-29T11:42:51;35.86;47.36
71254;HTU21D;59019;47.638;18.966;2023-07-29T11:45:19;35.86;46.18
71254;HTU21D;59019;47.638;18.966;2023-07-29T11:47:45;35.53;47.96
71254;HTU21D;59019;47.638;18.966;2023-07-29T11:50:12;35.20;49.09
71254;HTU21D;59019;47.638;18.966;2023-07-29T11:52:42;34.74;49.60
71254;HTU21D;59019;47.638;18.966;2023-07-29T11:55:08;33.77;51.72
71254;HTU21D;59019;47.638;18.966;2023-07-29T11:57:36;33.45;52.23
71254;HTU21D;59019;47.638;18.966;2023-07-29T12:00:03;33.75;53.09
71254;HTU21D;59019;47.638;18.966;2023-07-29T12:02:30;34.21;50.75
71254;HTU21D;59019;47.638;18.966;2023-07-29T12:04:57;34.61;49.50
71254;HTU21D;59019;47.638;18.966;2023-07-29T12:07:23;34.77;48.81
71254;HTU21D;59019;47.638;18.966;2023-07-29T12:09:49;35.00;49.37
71254;HTU21D;59019;47.638;18.966;2023-07-29T12:12:15;34.76;49.65
71254;HTU21D;59019;47.638;18.966;2023-07-29T12:14:44;35.11;50.06
71254;HTU21D;59019;47.638;18.966;2023-07-29T12:17:10;35.21;48.30
71254;HTU21D;59019;47.638;18.966;2023-07-29T12:19:40;33.78;50.37
71254;HTU21D;59019;47.638;18.966;2023-07-29T12:22:07;33.68;50.69
71254;HTU21D;59019;47.638;18.966;2023-07-29T12:24:36;34.46;50.91
71254;HTU21D;59019;47.638;18.966;2023-07-29T12:27:01;34.68;47.77
71254;HTU21D;59019;47.638;18.966;2023-07-29T12:29:27;34.22;49.15
71254;HTU21D;59019;47.638;18.966;2023-07-29T12:32:03;33.45;50.69
71254;HTU21D;59019;47.638;18.966;2023-07-29T12:34:31;32.77;51.94
71254;HTU21D;59019;47.638;18.966;2023-07-29T12:36:58;32.54;52.28
71254;HTU21D;59019;47.638;18.966;2023-07-29T12:39:28;32.49;54.00
71254;HTU21D;59019;47.638;18.966;2023-07-29T12:41:58;33.31;54.00
71254;HTU21D;59019;47.638;18.966;2023-07-29T12:44:31;33.63;50.29
71254;HTU21D;59019;47.638;18.966;2023-07-29T12:46:56;33.36;51.37
71254;HTU21D;59019;47.638;18.966;2023-07-29T12:49:22;33.78;50.02
71254;HTU21D;59019;47.638;18.966;2023-07-29T12:51:48;33.64;50.00
71254;HTU21D;59019;47.638;18.966;2023-07-29T12:54:14;33.50;50.89
71254;HTU21D;59019;47.638;18.966;2023-07-29T12:56:39;33.26;51.30
71254;HTU21D;59019;47.638;18.966;2023-07-29T12:59:05;33.25;53.49
71254;HTU21D;59019;47.638;18.966;2023-07-29T13:01:31;33.38;50.75
71254;HTU21D;59019;47.638;18.966;2023-07-29T13:03:56;32.87;50.87
71254;HTU21D;59019;47.638;18.966;2023-07-29T13:06:22;32.23;52.27
71254;HTU21D;59019;47.638;18.966;2023-07-29T13:08:48;31.94;53.24
71254;HTU21D;59019;47.638;18.966;2023-07-29T13:11:14;31.78;54.32
71254;HTU21D;59019;47.638;18.966;2023-07-29T13:13:40;32.32;53.20
71254;HTU21D;59019;47.638;18.966;2023-07-29T13:16:05;32.84;52.65
71254;HTU21D;59019;47.638;18.966;2023-07-29T13:18:32;33.48;51.09
71254;HTU21D;59019;47.638;18.966;2023-07-29T13:20:57;33.45;49.84
71254;HTU21D;59019;47.638;18.966;2023-07-29T13:23:23;33.79;49.16
71254;HTU21D;59019;47.638;18.966;2023-07-29T13:25:49;33.67;48.08
71254;HTU21D;59019;47.638;18.966;2023-07-29T13:28:16;33.38;48.40
71254;HTU21D;59019;47.638;18.966;2023-07-29T13:30:42;33.45;49.92
71254;HTU21D;59019;47.638;18.966;2023-07-29T13:33:08;33.92;49.65
71254;HTU21D;59019;47.638;18.966;2023-07-29T13:35:33;34.17;48.30
71254;HTU21D;59019;47.638;18.966;2023-07-29T13:37:59;34.32;48.08
71254;HTU21D;59019;47.638;18.966;2023-07-29T13:40:25;34.49;47.10
71254;HTU21D;59019;47.638;18.966;2023-07-29T13:42:51;34.41;46.50
71254;HTU21D;59019;47.638;18.966;2023-07-29T13:45:17;34.88;46.09
71254;HTU21D;59019;47.638;18.966;2023-07-29T13:47:43;35.15;45.63
71254;HTU21D;59019;47.638;18.966;2023-07-29T13:50:09;35.31;44.49
71254;HTU21D;59019;47.638;18.966;2023-07-29T13:52:36;35.19;44.81
71254;HTU21D;59019;47.638;18.966;2023-07-29T13:55:02;34.97;44.33
71254;HTU21D;59019;47.638;18.966;2023-07-29T13:57:27;34.95;44.45
71254;HTU21D;59019;47.638;18.966;2023-07-29T13:59:53;34.79;44.86
71254;HTU21D;59019;47.638;18.966;2023-07-29T14:02:18;34.69;44.91
71254;HTU21D;59019;47.638;18.966;2023-07-29T14:04:43;34.74;45.46
71254;HTU21D;59019;47.638;18.966;2023-07-29T14:07:09;34.71;46.16
71254;HTU21D;59019;47.638;18.966;2023-07-29T14:09:34;34.74;45.31
71254;HTU21D;59019;47.638;18.966;2023-07-29T14:12:00;35.00;45.37
71254;HTU21D;59019;47.638;18.966;2023-07-29T14:14:25;34.66;46.49
71254;HTU21D;59019;47.638;18.966;2023-07-29T14:16:51;34.48;46.07
71254;HTU21D;59019;47.638;18.966;2023-07-29T14:19:16;33.82;47.24
71254;HTU21D;59019;47.638;18.966;2023-07-29T14:21:42;33.29;48.19
71254;HTU21D;59019;47.638;18.966;2023-07-29T14:24:07;32.85;48.99
71254;HTU21D;59019;47.638;18.966;2023-07-29T14:26:35;33.09;48.34
71254;HTU21D;59019;47.638;18.966;2023-07-29T14:29:01;33.50;47.98
71254;HTU21D;59019;47.638;18.966;2023-07-29T14:31:26;32.91;49.05
71254;HTU21D;59019;47.638;18.966;2023-07-29T14:33:52;32.97;50.06
71254;HTU21D;59019;47.638;18.966;2023-07-29T14:36:17;33.30;49.64
71254;HTU21D;59019;47.638;18.966;2023-07-29T14:38:43;33.60;48.28
71254;HTU21D;59019;47.638;18.966;2023-07-29T14:41:08;33.20;49.10
71254;HTU21D;59019;47.638;18.966;2023-07-29T14:43:34;32.79;49.38
71254;HTU21D;59019;47.638;18.966;2023-07-29T14:46:00;32.28;50.46
71254;HTU21D;59019;47.638;18.966;2023-07-29T14:48:26;32.02;51.31
71254;HTU21D;59019;47.638;18.966;2023-07-29T14:50:52;31.48;52.03
71254;HTU21D;59019;47.638;18.966;2023-07-29T14:53:18;31.09;53.66
71254;HTU21D;59019;47.638;18.966;2023-07-29T14:55:43;30.94;53.39
71254;HTU21D;59019;47.638;18.966;2023-07-29T14:58:09;30.66;54.15